Time;durP1;ratioP1;P1;durP2;ratioP2;P2;SDS_P1;SDS_P2;PMS_P1;PMS_P2;Temp;Humidity;BMP_temperature;BMP_pressure;BME280_temperature;BME280_humidity;BME280_pressure;Samples;Min_cycle;Max_cycle;Signal;HPM_P1;HPM_P2
2023/01/31 00:01:19;;;;;;;11.63;3.58;;;;;;;1.97;97.17;102478.91;6189209;23;20456;-74
2023/01/31 00:03:47;;;;;;;5.70;1.70;;;;;;;1.93;97.13;102472.81;6189268;23;20415;-74
2023/01/31 00:06:19;;;;;;;8.40;1.55;;;;;;;1.90;97.18;102480.59;6189651;23;20025;-74
2023/01/31 00:08:48;;;;;;;7.25;1.80;;;;;;;1.86;97.19;102479.75;6189149;23;20010;-74
2023/01/31 00:11:16;;;;;;;12.80;2.22;;;;;;;1.83;97.05;102478.56;6188951;23;20024;-74
2023/01/31 00:13:44;;;;;;;7.05;1.63;;;;;;;1.81;97.57;102474.72;6188725;23;20073;-74
2023/01/31 00:16:12;;;;;;;9.95;1.90;;;;;;;1.79;97.64;102480.31;6189401;23;20013;-74
2023/01/31 00:18:39;;;;;;;9.95;2.42;;;;;;;1.78;97.80;102463.03;6189328;23;20013;-74
2023/01/31 00:21:15;;;;;;;13.38;2.25;;;;;;;1.76;97.82;102474.97;6188870;23;20208;-74
2023/01/31 00:23:43;;;;;;;10.30;2.47;;;;;;;1.74;98.20;102469.31;6163209;23;20388;-74
2023/01/31 00:26:30;;;;;;;6.93;1.70;;;;;;;1.72;98.11;102456.50;6188995;23;20507;-74
2023/01/31 00:28:58;;;;;;;8.73;1.60;;;;;;;1.71;98.11;102446.34;6188507;23;20044;-74
2023/01/31 00:31:27;;;;;;;9.77;2.03;;;;;;;1.70;98.38;102442.19;6189035;23;20025;-74
2023/01/31 00:33:55;;;;;;;8.90;1.52;;;;;;;1.67;98.39;102441.75;6188928;23;20019;-74
2023/01/31 00:36:30;;;;;;;12.20;2.40;;;;;;;1.64;98.28;102426.69;6189088;23;20031;-74
2023/01/31 00:39:00;;;;;;;14.20;2.17;;;;;;;1.63;98.38;102424.38;6188700;23;20015;-74
2023/01/31 00:41:29;;;;;;;14.57;2.33;;;;;;;1.61;98.69;102424.72;6189058;23;20116;-74
2023/01/31 00:43:56;;;;;;;8.73;2.08;;;;;;;1.61;98.98;102424.72;6188325;23;20018;-74
2023/01/31 00:46:23;;;;;;;11.65;2.67;;;;;;;1.61;99.11;102422.09;6162010;23;20440;-74
2023/01/31 00:48:50;;;;;;;7.00;1.77;;;;;;;1.58;99.09;102417.56;6161851;23;20076;-74
2023/01/31 00:51:18;;;;;;;17.15;2.28;;;;;;;1.58;99.48;102414.94;6188564;23;20022;-74
2023/01/31 00:53:45;;;;;;;12.00;2.55;;;;;;;1.58;99.56;102419.41;6162769;23;20017;-74
2023/01/31 00:56:15;;;;;;;18.50;3.60;;;;;;;1.57;99.70;102415.25;6162193;23;20017;-74
2023/01/31 00:58:42;;;;;;;11.50;2.20;;;;;;;1.54;99.54;102411.44;6161830;23;20478;-74
2023/01/31 01:01:12;;;;;;;10.13;1.95;;;;;;;1.52;99.52;102411.00;6162389;23;20056;-74
2023/01/31 01:03:40;;;;;;;14.25;2.55;;;;;;;1.51;99.51;102409.50;6162652;23;20022;-74
2023/01/31 01:06:07;;;;;;;8.38;1.95;;;;;;;1.49;99.57;102413.53;6162215;23;20395;-74
2023/01/31 01:08:38;;;;;;;23.13;2.22;;;;;;;1.46;99.67;102414.97;6162203;23;20021;-74
2023/01/31 01:11:11;;;;;;;7.30;2.15;;;;;;;1.44;99.63;102411.94;6161882;23;20053;-74
2023/01/31 01:13:38;;;;;;;10.00;2.88;;;;;;;1.43;99.87;102423.53;6189570;23;20072;-74
2023/01/31 01:16:13;;;;;;;11.88;2.67;;;;;;;1.44;100.00;102411.94;6189112;23;20024;-74
2023/01/31 01:18:40;;;;;;;17.48;2.33;;;;;;;1.45;100.00;102400.34;6189374;23;20018;-75
2023/01/31 01:21:13;;;;;;;12.48;2.58;;;;;;;1.45;100.00;102399.56;6188860;23;20018;-74
2023/01/31 01:23:41;;;;;;;9.23;1.92;;;;;;;1.43;100.00;102397.28;6162685;23;20060;-75
2023/01/31 01:26:19;;;;;;;7.55;2.33;;;;;;;1.42;100.00;102389.75;6161879;23;20024;-75
2023/01/31 01:28:48;;;;;;;6.30;1.77;;;;;;;1.42;100.00;102392.38;6162392;23;20558;-75
2023/01/31 01:31:16;;;;;;;10.45;2.05;;;;;;;1.40;100.00;102399.81;6162096;23;20444;-74
2023/01/31 01:33:44;;;;;;;16.73;2.30;;;;;;;1.39;100.00;102395.66;6188859;23;20049;-75
2023/01/31 01:36:17;;;;;;;12.18;2.42;;;;;;;1.37;100.00;102393.38;6188995;23;20017;-74
2023/01/31 01:38:44;;;;;;;5.60;1.98;;;;;;;1.36;100.00;102398.94;6189081;23;20129;-75
2023/01/31 01:41:12;;;;;;;6.63;1.85;;;;;;;1.37;100.00;102392.59;6162129;23;20054;-75
2023/01/31 01:43:39;;;;;;;18.90;2.35;;;;;;;1.38;100.00;102391.50;6189879;23;20020;-74
2023/01/31 01:46:09;;;;;;;13.07;2.13;;;;;;;1.40;100.00;102395.31;6162338;23;20018;-75
2023/01/31 01:48:37;;;;;;;18.23;1.77;;;;;;;1.41;100.00;102396.84;6189030;23;20418;-75
2023/01/31 01:51:05;;;;;;;17.42;2.50;;;;;;;1.44;100.00;102401.44;6161603;23;20416;-75
2023/01/31 01:53:35;;;;;;;13.55;2.40;;;;;;;1.46;100.00;102407.09;6162107;23;20018;-75
2023/01/31 01:56:10;;;;;;;13.57;2.83;;;;;;;1.46;100.00;102401.84;6188140;23;20411;-75
2023/01/31 01:58:56;;;;;;;12.68;2.85;;;;;;;1.48;100.00;102410.16;6161682;23;20045;-75
2023/01/31 02:01:25;;;;;;;9.80;2.67;;;;;;;1.51;100.00;102406.09;6188708;23;20456;-75
2023/01/31 02:03:52;;;;;;;11.18;1.95;;;;;;;1.53;100.00;102404.66;6188689;23;20014;-74
2023/01/31 02:06:19;;;;;;;13.60;2.55;;;;;;;1.56;100.00;102408.47;6188762;23;20452;-75
2023/01/31 02:08:46;;;;;;;16.00;2.78;;;;;;;1.59;100.00;102410.44;6188090;23;20021;-75
2023/01/31 02:11:23;;;;;;;14.32;2.92;;;;;;;1.63;100.00;102409.41;6161514;23;20420;-75
2023/01/31 02:13:56;;;;;;;11.70;2.28;;;;;;;1.66;100.00;102408.72;6188327;23;20014;-74
2023/01/31 02:16:23;;;;;;;12.07;3.17;;;;;;;1.72;100.00;102413.72;6161891;23;20018;-74
2023/01/31 02:18:50;;;;;;;13.48;2.58;;;;;;;1.75;100.00;102400.69;6161462;23;20021;-73
2023/01/31 02:21:53;;;;;;;13.32;2.28;;;;;;;1.80;100.00;102407.56;6188408;23;20025;-74
2023/01/31 02:24:48;;;;;;;10.57;2.20;;;;;;;1.84;100.00;102409.19;6161526;23;20479;-74
2023/01/31 02:27:34;;;;;;;8.65;1.90;;;;;;;1.87;100.00;102405.88;6161729;23;20017;-74
2023/01/31 02:30:42;;;;;;;16.05;2.17;;;;;;;1.92;100.00;102413.50;6161912;23;20025;-73
2023/01/31 02:33:16;;;;;;;19.05;2.55;;;;;;;1.96;100.00;102403.09;6161939;23;20525;-74
2023/01/31 02:36:02;;;;;;;6.18;1.85;;;;;;;1.98;100.00;102396.38;6161822;23;20053;-74
2023/01/31 02:38:49;;;;;;;13.00;2.83;;;;;;;2.03;100.00;102394.59;6161421;23;20351;-74
2023/01/31 02:41:46;;;;;;;15.02;2.17;;;;;;;2.08;100.00;102389.84;6188372;23;20030;-74
2023/01/31 02:45:09;;;;;;;7.68;2.10;;;;;;;2.10;100.00;102377.13;6188542;23;20090;-74
2023/01/31 02:47:23;;;;;;;13.68;2.45;;;;;;;2.12;100.00;102372.28;6146846;23;20041;-74
2023/01/31 02:50:04;;;;;;;5.93;2.40;;;;;;;2.15;100.00;102365.59;6161899;23;20093;-74
2023/01/31 02:52:45;;;;;;;9.52;2.28;;;;;;;2.19;100.00;102376.94;6160883;23;20021;-74
2023/01/31 02:58:11;;;;;;;10.95;2.28;;;;;;;2.24;100.00;102374.81;6161639;23;20017;-74
2023/01/31 03:00:40;;;;;;;10.98;2.63;;;;;;;2.26;100.00;102366.59;6161709;23;20113;-74
2023/01/31 03:03:17;;;;;;;23.33;2.33;;;;;;;2.30;100.00;102373.44;6188231;23;20040;-74
2023/01/31 03:05:43;;;;;;;14.00;2.38;;;;;;;2.35;100.00;102369.81;6161591;23;20030;-75
2023/01/31 03:08:15;;;;;;;12.35;2.60;;;;;;;2.38;100.00;102376.25;6187585;23;20014;-75
2023/01/31 03:11:03;;;;;;;10.95;2.53;;;;;;;2.38;100.00;102366.50;6161863;23;20022;-75
2023/01/31 03:13:48;;;;;;;15.63;3.00;;;;;;;2.41;100.00;102365.78;6189197;23;20080;-75
2023/01/31 03:19:27;;;;;;;14.63;2.55;;;;;;;2.49;100.00;102358.81;6189416;23;20055;-75
2023/01/31 03:22:00;;;;;;;8.93;2.55;;;;;;;2.52;100.00;102352.84;6188839;23;20014;-75
2023/01/31 03:24:29;;;;;;;16.17;3.22;;;;;;;2.56;100.00;102348.44;6162439;23;20014;-75
2023/01/31 03:26:57;;;;;;;20.30;3.65;;;;;;;2.60;100.00;102346.66;6162281;23;20452;-76
2023/01/31 03:29:27;;;;;;;9.77;3.25;;;;;;;2.63;100.00;102344.09;6162607;23;20352;-75
2023/01/31 03:32:10;;;;;;;12.32;3.70;;;;;;;2.73;100.00;102336.75;6162658;23;20104;-75
2023/01/31 03:34:37;;;;;;;15.88;3.58;;;;;;;2.77;100.00;102340.22;6189816;23;20017;-75
2023/01/31 03:37:17;;;;;;;12.45;3.88;;;;;;;2.81;100.00;102333.91;6161854;23;20022;-75
2023/01/31 03:39:57;;;;;;;19.35;3.72;;;;;;;2.90;100.00;102329.19;6162591;23;20017;-75
2023/01/31 03:42:31;;;;;;;13.13;4.15;;;;;;;2.92;100.00;102324.34;6162741;23;20021;-75
2023/01/31 03:45:10;;;;;;;16.08;4.10;;;;;;;2.96;100.00;102325.16;6162561;23;20073;-75
2023/01/31 03:47:43;;;;;;;12.07;3.80;;;;;;;2.99;100.00;102319.22;6163256;23;20049;-75
2023/01/31 03:50:24;;;;;;;19.70;5.15;;;;;;;3.01;100.00;102319.63;6162781;23;20022;-75
2023/01/31 03:52:57;;;;;;;17.63;3.95;;;;;;;3.05;100.00;102318.94;6180314;23;20022;-75
2023/01/31 03:55:48;;;;;;;20.60;4.45;;;;;;;3.07;100.00;102311.44;6212804;23;20077;-75
2023/01/31 03:58:18;;;;;;;22.42;5.15;;;;;;;3.11;100.00;102325.44;6186922;23;20026;-75
2023/01/31 04:00:47;;;;;;;23.20;3.85;;;;;;;3.13;100.00;102321.34;6187076;23;20079;-75
2023/01/31 04:03:23;;;;;;;15.93;4.57;;;;;;;3.16;100.00;102322.53;6187426;23;20943;-75
2023/01/31 04:05:49;;;;;;;15.43;4.60;;;;;;;3.19;100.00;102319.19;6212092;23;20456;-75
2023/01/31 04:08:18;;;;;;;16.85;4.75;;;;;;;3.21;100.00;102324.84;6187180;23;20022;-75
2023/01/31 04:10:53;;;;;;;11.68;4.07;;;;;;;3.20;100.00;102316.19;6187211;23;20030;-75
2023/01/31 04:13:20;;;;;;;17.25;5.38;;;;;;;3.21;100.00;102309.06;6188769;23;20021;-75
2023/01/31 04:15:47;;;;;;;13.93;4.78;;;;;;;3.22;100.00;102302.69;6187222;23;20129;-75
2023/01/31 04:18:14;;;;;;;24.92;5.07;;;;;;;3.21;100.00;102301.91;6188979;23;20463;-75
2023/01/31 04:20:40;;;;;;;12.73;4.72;;;;;;;3.21;100.00;102295.88;6188578;23;20391;-75
2023/01/31 04:23:07;;;;;;;15.10;4.63;;;;;;;3.23;100.00;102296.31;6188451;23;20013;-75
2023/01/31 04:25:33;;;;;;;16.30;5.30;;;;;;;3.23;100.00;102296.31;6188962;23;20022;-75
2023/01/31 04:28:00;;;;;;;17.67;4.93;;;;;;;3.21;100.00;102294.00;6189091;23;20018;-75
2023/01/31 04:30:26;;;;;;;26.27;5.72;;;;;;;3.21;100.00;102291.38;6188778;23;20395;-76
2023/01/31 04:32:52;;;;;;;18.20;5.15;;;;;;;3.21;100.00;102293.25;6189194;23;20325;-76
2023/01/31 04:35:19;;;;;;;25.20;5.80;;;;;;;3.21;100.00;102295.88;6188372;23;20017;-76
2023/01/31 04:37:46;;;;;;;20.83;5.50;;;;;;;3.24;100.00;102282.78;6189177;23;20425;-75
2023/01/31 04:40:13;;;;;;;22.13;5.22;;;;;;;3.24;100.00;102285.41;6188863;23;20025;-75
2023/01/31 04:42:39;;;;;;;15.98;5.00;;;;;;;3.28;100.00;102301.28;6189564;23;20013;-76
2023/01/31 04:45:06;;;;;;;17.17;5.10;;;;;;;3.30;100.00;102291.16;6188806;23;20419;-75
2023/01/31 04:47:33;;;;;;;16.42;5.68;;;;;;;3.31;100.00;102288.19;6189204;23;20049;-75
2023/01/31 04:49:59;;;;;;;16.67;4.80;;;;;;;3.32;100.00;102268.63;6188328;23;20018;-75
2023/01/31 04:52:26;;;;;;;20.48;5.68;;;;;;;3.35;100.00;102261.91;6188816;23;20014;-75
2023/01/31 04:54:52;;;;;;;15.73;4.80;;;;;;;3.36;100.00;102268.69;6188853;23;20018;-75
2023/01/31 04:57:19;;;;;;;18.63;5.43;;;;;;;3.37;100.00;102270.22;6188864;23;20360;-75
2023/01/31 04:59:45;;;;;;;22.80;5.43;;;;;;;3.38;100.00;102263.84;6188944;23;20021;-75
2023/01/31 05:02:13;;;;;;;20.05;4.65;;;;;;;3.41;100.00;102257.13;6188861;23;20076;-75
2023/01/31 05:04:40;;;;;;;13.85;5.50;;;;;;;3.43;100.00;102262.78;6188635;23;20018;-75
2023/01/31 05:07:07;;;;;;;20.55;5.70;;;;;;;3.46;100.00;102265.47;6189144;23;20033;-75
2023/01/31 05:09:33;;;;;;;18.05;5.53;;;;;;;3.46;100.00;102256.81;6189105;23;20018;-75
2023/01/31 05:12:00;;;;;;;17.95;5.72;;;;;;;3.49;100.00;102256.88;6189049;23;20025;-75
2023/01/31 05:14:26;;;;;;;20.25;4.55;;;;;;;3.50;100.00;102263.66;6188922;23;20018;-75
2023/01/31 05:16:53;;;;;;;19.05;4.82;;;;;;;3.53;100.00;102260.31;6188809;23;20450;-75
2023/01/31 05:19:19;;;;;;;24.05;5.70;;;;;;;3.53;100.00;102252.44;6187968;23;20021;-75
2023/01/31 05:21:57;;;;;;;17.15;5.47;;;;;;;3.55;100.00;102252.06;6188668;23;20024;-75
2023/01/31 05:24:29;;;;;;;15.02;5.45;;;;;;;3.56;100.00;102259.63;6189004;23;20014;-75
2023/01/31 05:27:00;;;;;;;22.08;5.75;;;;;;;3.58;100.00;102254.00;6189042;23;20458;-75
2023/01/31 05:29:28;;;;;;;22.95;6.53;;;;;;;3.60;100.00;102246.47;6188656;23;20049;-75
2023/01/31 05:31:57;;;;;;;16.30;5.40;;;;;;;3.62;100.00;102239.75;6188712;23;20018;-75
2023/01/31 05:34:25;;;;;;;21.88;5.30;;;;;;;3.64;100.00;102240.16;6188649;23;20093;-75
2023/01/31 05:36:51;;;;;;;19.25;6.35;;;;;;;3.65;100.00;102246.94;6188985;23;20069;-75
2023/01/31 05:39:18;;;;;;;14.45;5.15;;;;;;;3.67;100.00;102246.59;6188986;23;20068;-75
2023/01/31 05:41:45;;;;;;;22.27;5.53;;;;;;;3.68;100.00;102245.47;6188816;23;20448;-75
2023/01/31 05:44:11;;;;;;;17.27;4.90;;;;;;;3.69;100.00;102237.22;6188568;23;20065;-75
2023/01/31 05:46:38;;;;;;;20.30;4.90;;;;;;;3.71;100.00;102230.81;6188604;23;20447;-75
2023/01/31 05:49:04;;;;;;;19.33;5.75;;;;;;;3.73;100.00;102231.22;6162285;23;20013;-75
2023/01/31 05:51:31;;;;;;;23.25;6.13;;;;;;;3.74;100.00;102241.41;6138307;23;20022;-75
2023/01/31 05:53:57;;;;;;;22.30;5.10;;;;;;;3.76;100.00;102238.44;6188761;23;20013;-75
2023/01/31 05:56:24;;;;;;;17.20;4.93;;;;;;;3.76;100.00;102238.44;6188880;23;20021;-75
2023/01/31 05:58:51;;;;;;;23.63;4.72;;;;;;;3.79;100.00;102233.22;6188856;23;20022;-75
2023/01/31 06:01:19;;;;;;;21.10;5.22;;;;;;;3.81;100.00;102238.13;6187683;23;20021;-75
2023/01/31 06:03:48;;;;;;;22.13;5.03;;;;;;;3.80;100.00;102226.06;6187043;23;20018;-75
2023/01/31 06:06:15;;;;;;;18.58;5.00;;;;;;;3.81;100.00;102217.03;6188371;23;20021;-75
2023/01/31 06:08:42;;;;;;;16.95;5.35;;;;;;;3.81;100.00;102211.78;6188958;23;20040;-75
2023/01/31 06:11:11;;;;;;;20.70;5.28;;;;;;;3.84;100.00;102214.47;6185712;23;20022;-76
2023/01/31 06:13:38;;;;;;;12.30;4.05;;;;;;;3.85;100.00;102212.59;6188961;23;20493;-75
2023/01/31 06:16:05;;;;;;;21.60;5.50;;;;;;;3.87;100.00;102210.34;6188057;23;20017;-75
2023/01/31 06:18:32;;;;;;;23.88;5.20;;;;;;;3.89;100.00;102202.84;6188756;23;20447;-75
2023/01/31 06:20:58;;;;;;;21.52;5.18;;;;;;;3.90;100.00;102193.84;6188373;23;20022;-75
2023/01/31 06:23:25;;;;;;;29.30;5.05;;;;;;;3.91;100.00;102195.34;6186664;23;20018;-75
2023/01/31 06:25:54;;;;;;;21.27;5.05;;;;;;;3.92;100.00;102202.91;6188131;23;20315;-75
2023/01/31 06:28:21;;;;;;;20.52;5.15;;;;;;;3.94;100.00;102202.53;6211677;23;20092;-75
2023/01/31 06:30:48;;;;;;;15.57;4.75;;;;;;;3.94;100.00;102199.91;6187740;23;20014;-75
2023/01/31 06:33:16;;;;;;;20.63;4.78;;;;;;;3.95;100.00;102201.44;6186511;23;20021;-75
2023/01/31 06:35:42;;;;;;;15.35;5.40;;;;;;;3.97;100.00;102196.56;6188795;23;20024;-75
2023/01/31 06:38:12;;;;;;;20.88;5.15;;;;;;;3.97;100.00;102194.69;6188826;23;20018;-76
2023/01/31 06:40:38;;;;;;;18.08;4.47;;;;;;;3.98;100.00;102187.53;6188718;23;20096;-75
2023/01/31 06:43:05;;;;;;;11.88;4.50;;;;;;;3.98;100.00;102187.53;6188477;23;20018;-74
2023/01/31 06:45:31;;;;;;;25.35;5.10;;;;;;;3.99;100.00;102181.16;6187191;23;20024;-75
2023/01/31 06:47:58;;;;;;;22.95;4.97;;;;;;;3.99;100.00;102183.78;6188007;23;20020;-75
2023/01/31 06:50:25;;;;;;;17.20;4.63;;;;;;;4.01;100.00;102178.91;6186643;23;20032;-75
2023/01/31 06:52:51;;;;;;;15.88;3.97;;;;;;;4.02;100.00;102189.06;6187490;23;20021;-75
2023/01/31 06:55:18;;;;;;;22.40;4.20;;;;;;;4.04;100.00;102183.44;6188141;23;20456;-75
2023/01/31 06:57:49;;;;;;;24.67;4.97;;;;;;;4.05;100.00;102186.84;6188035;23;20017;-75
2023/01/31 07:00:19;;;;;;;18.23;4.93;;;;;;;4.06;100.00;102186.47;6187715;23;20033;-75
2023/01/31 07:02:46;;;;;;;18.38;4.90;;;;;;;4.09;100.00;102179.75;6188173;23;20029;-75
2023/01/31 07:05:13;;;;;;;13.57;3.83;;;;;;;4.11;100.00;102182.78;6188005;23;20024;-75
2023/01/31 07:07:40;;;;;;;11.25;3.97;;;;;;;4.12;100.00;102179.78;6188655;23;20613;-75
2023/01/31 07:10:07;;;;;;;16.48;4.93;;;;;;;4.13;100.00;102170.00;6187835;23;20014;-75
2023/01/31 07:12:33;;;;;;;16.92;4.10;;;;;;;4.14;100.00;102163.59;6188006;23;20436;-75
2023/01/31 07:15:00;;;;;;;17.33;4.60;;;;;;;4.15;100.00;102163.25;6187415;23;20124;-75
2023/01/31 07:17:27;;;;;;;15.75;3.85;;;;;;;4.16;100.00;102151.59;6188258;23;20021;-75
2023/01/31 07:19:53;;;;;;;20.23;4.28;;;;;;;4.18;100.00;102154.63;6187202;23;20024;-76
2023/01/31 07:22:20;;;;;;;23.27;4.75;;;;;;;4.19;100.00;102152.75;6187374;23;20073;-76
2023/01/31 07:24:49;;;;;;;19.98;4.78;;;;;;;4.19;100.00;102153.50;6187735;23;20017;-76
2023/01/31 07:27:16;;;;;;;13.98;4.72;;;;;;;4.20;100.00;102152.38;6161269;23;20372;-76
2023/01/31 07:29:43;;;;;;;20.85;5.13;;;;;;;4.19;100.00;102156.13;6160511;23;20025;-76
2023/01/31 07:32:10;;;;;;;16.02;4.60;;;;;;;4.20;100.00;102152.38;6187897;23;20037;-76
2023/01/31 07:34:37;;;;;;;17.67;4.35;;;;;;;4.24;100.00;102157.69;6188242;23;20388;-76
2023/01/31 07:37:03;;;;;;;18.92;4.35;;;;;;;4.27;100.00;102146.44;6187697;23;20045;-77
2023/01/31 07:39:30;;;;;;;15.98;3.97;;;;;;;4.27;100.00;102149.81;6187608;23;20701;-76
2023/01/31 07:41:56;;;;;;;14.60;4.28;;;;;;;4.29;100.00;102150.22;6187273;23;20057;-77
2023/01/31 07:44:23;;;;;;;24.83;4.80;;;;;;;4.31;100.00;102148.00;6186342;23;20021;-78
2023/01/31 07:46:50;;;;;;;18.02;4.57;;;;;;;4.33;100.00;102152.91;6187510;23;20518;-76
2023/01/31 07:49:17;;;;;;;10.45;4.13;;;;;;;4.34;100.00;102149.91;6187472;23;20416;-75
2023/01/31 07:51:43;;;;;;;19.48;4.68;;;;;;;4.35;100.00;102138.25;6188112;23;20018;-77
2023/01/31 07:54:10;;;;;;;15.55;4.25;;;;;;;4.40;100.00;102139.75;6188672;23;20028;-78
2023/01/31 07:56:37;;;;;;;22.73;4.63;;;;;;;4.43;100.00;102140.91;6188479;23;20018;-77
2023/01/31 07:59:04;;;;;;;15.88;4.43;;;;;;;4.45;100.00;102143.94;6189199;23;20024;-77
2023/01/31 08:04:16;;;;;;;16.25;4.60;;;;;;;4.49;100.00;102132.31;6190207;23;20017;-77
2023/01/31 08:06:50;;;;;;;12.45;4.63;;;;;;;4.52;100.00;102118.41;6189918;23;20014;-77
2023/01/31 08:09:17;;;;;;;17.10;5.03;;;;;;;4.52;100.00;102125.56;6162864;23;20022;-77
2023/01/31 08:11:44;;;;;;;16.02;5.10;;;;;;;4.54;100.00;102120.69;6189573;23;20017;-77
2023/01/31 08:14:10;;;;;;;14.13;4.35;;;;;;;4.55;100.00;102124.84;6189873;23;20029;-77
2023/01/31 08:16:37;;;;;;;17.30;4.68;;;;;;;4.56;100.00;102118.44;6190406;23;20017;-77
2023/01/31 08:19:04;;;;;;;15.30;4.90;;;;;;;4.56;100.00;102115.81;6190394;23;20037;-78
2023/01/31 08:21:31;;;;;;;14.18;4.45;;;;;;;4.55;100.00;102115.03;6189855;23;20428;-78
2023/01/31 08:23:57;;;;;;;14.48;4.55;;;;;;;4.57;100.00;102104.13;6190309;23;20021;-77
2023/01/31 08:26:23;;;;;;;12.65;4.57;;;;;;;4.59;100.00;102097.38;6189361;23;20073;-77
2023/01/31 08:28:52;;;;;;;14.32;4.38;;;;;;;4.64;100.00;102101.56;6190177;23;20021;-77
2023/01/31 08:31:22;;;;;;;15.50;4.20;;;;;;;4.68;100.00;102091.78;6162835;23;20069;-77
2023/01/31 08:33:51;;;;;;;14.35;4.55;;;;;;;4.71;100.00;102098.97;6190234;23;20028;-77
2023/01/31 08:36:21;;;;;;;20.70;4.70;;;;;;;4.73;100.00;102086.19;6163782;23;20281;-75
2023/01/31 08:38:48;;;;;;;15.20;3.90;;;;;;;4.77;100.00;102080.94;6190267;23;20021;-75
2023/01/31 08:41:17;;;;;;;17.35;4.13;;;;;;;4.78;100.00;102085.09;6189205;23;20028;-75
2023/01/31 08:43:44;;;;;;;14.75;4.63;;;;;;;4.82;100.00;102094.50;6190243;23;20333;-75
2023/01/31 08:46:30;;;;;;;13.90;3.72;;;;;;;4.85;100.00;102093.03;6189407;23;20022;-76
2023/01/31 08:48:59;;;;;;;11.00;3.90;;;;;;;4.89;100.00;102101.72;6190556;23;20017;-76
2023/01/31 08:51:26;;;;;;;9.73;4.05;;;;;;;4.90;100.00;102093.44;6163174;23;20028;-77
2023/01/31 08:53:53;;;;;;;11.52;3.95;;;;;;;4.93;100.00;102091.94;6190010;23;20097;-77
2023/01/31 08:56:24;;;;;;;15.68;3.60;;;;;;;4.93;100.00;102102.50;6189309;23;20396;-79
2023/01/31 08:58:52;;;;;;;13.85;4.32;;;;;;;4.94;100.00;102104.78;6188769;23;20100;-76
2023/01/31 09:01:20;;;;;;;18.30;4.45;;;;;;;4.94;100.00;102091.59;6189938;23;20014;-78
2023/01/31 09:03:47;;;;;;;15.70;4.53;;;;;;;4.97;100.00;102109.31;6190155;23;20023;-82
2023/01/31 09:06:18;;;;;;;11.80;3.20;;;;;;;4.99;100.00;102099.16;6188417;23;20024;-79
2023/01/31 09:08:45;;;;;;;11.27;3.55;;;;;;;5.05;100.00;102104.09;6190338;23;20327;-77
2023/01/31 09:11:16;;;;;;;14.38;4.00;;;;;;;5.06;100.00;102092.41;6189384;23;20470;-75
2023/01/31 09:13:43;;;;;;;17.97;3.70;;;;;;;5.08;100.00;102093.56;6188299;23;20026;-78
2023/01/31 09:16:11;;;;;;;23.33;4.53;;;;;;;5.11;100.00;102097.34;6190283;23;20230;-78
2023/01/31 09:18:39;;;;;;;19.35;4.28;;;;;;;5.13;100.00;102101.13;6190371;23;20018;-76
2023/01/31 09:21:11;;;;;;;13.02;4.22;;;;;;;5.17;100.00;102083.44;6191233;23;20515;-75
2023/01/31 09:23:38;;;;;;;;;;;;;;;5.20;100.00;102085.31;6192212;23;20017;-77
2023/01/31 09:26:09;;;;;;;11.50;3.20;;;;;;;5.23;100.00;102083.81;6192159;23;20346;-79
2023/01/31 09:28:36;;;;;;;11.02;3.83;;;;;;;5.24;100.00;102080.06;6191682;23;20037;-77
2023/01/31 09:31:08;;;;;;;14.10;3.83;;;;;;;5.27;100.00;102081.97;6189916;23;20018;-77
2023/01/31 09:33:35;;;;;;;13.05;3.90;;;;;;;5.31;100.00;102078.22;6189876;23;20463;-76
2023/01/31 09:36:05;;;;;;;17.67;4.93;;;;;;;5.35;100.00;102086.16;6190137;23;20020;-77
2023/01/31 09:38:33;;;;;;;13.70;3.58;;;;;;;5.34;100.00;102069.56;6188517;23;20072;-76
2023/01/31 09:41:05;;;;;;;14.80;4.22;;;;;;;5.35;100.00;102075.59;6189892;23;20018;-76
2023/01/31 09:43:39;;;;;;;;;;;;;;;5.37;100.00;102078.63;6190016;23;20021;-76
2023/01/31 09:46:14;;;;;;;10.48;3.65;;;;;;;5.35;100.00;102076.34;6190072;23;19983;-75
2023/01/31 09:48:45;;;;;;;12.95;4.93;;;;;;;5.34;100.00;102079.34;6190219;23;20022;-75
2023/01/31 09:51:15;;;;;;;15.60;5.43;;;;;;;5.34;100.00;102074.84;6189086;23;20014;-75
2023/01/31 09:53:42;;;;;;;17.58;4.72;;;;;;;5.34;100.00;102058.22;6189271;23;20021;-75
2023/01/31 09:56:31;;;;;;;15.82;5.28;;;;;;;5.34;100.00;102055.59;6189709;23;20014;-75
2023/01/31 09:59:28;;;;;;;19.77;5.53;;;;;;;5.35;100.00;102059.75;6163416;23;20017;-78
2023/01/31 10:02:14;;;;;;;13.43;5.07;;;;;;;5.38;100.00;102069.56;6189403;23;20447;-74
2023/01/31 10:05:17;;;;;;;20.63;6.20;;;;;;;5.45;100.00;102074.13;6189868;23;20170;-74
2023/01/31 10:08:03;;;;;;;18.85;4.75;;;;;;;5.48;100.00;102100.56;6189055;23;20018;-75
2023/01/31 10:10:44;;;;;;;17.48;5.65;;;;;;;5.50;100.00;102086.97;6189600;23;20018;-75
2023/01/31 10:13:18;;;;;;;15.85;5.35;;;;;;;5.50;100.00;102085.09;6189370;23;20020;-75
2023/01/31 10:15:50;;;;;;;19.15;5.53;;;;;;;5.51;100.00;102073.41;6189664;23;20021;-74
2023/01/31 10:18:24;;;;;;;16.65;5.32;;;;;;;5.51;100.00;102062.09;6189008;23;20798;-75
2023/01/31 10:20:55;;;;;;;14.90;5.00;;;;;;;5.55;100.00;102055.69;6189060;23;20392;-74
2023/01/31 10:23:28;;;;;;;16.27;5.15;;;;;;;5.60;100.00;102057.94;6188809;23;20348;-75
2023/01/31 10:26:12;;;;;;;13.65;5.43;;;;;;;5.65;100.00;102051.53;6163033;23;20442;-75
2023/01/31 10:28:46;;;;;;;13.82;4.88;;;;;;;5.70;100.00;102051.94;6189810;23;20349;-75
2023/01/31 10:31:24;;;;;;;11.27;4.93;;;;;;;5.78;100.00;102052.72;6189211;23;20021;-75
2023/01/31 10:33:55;;;;;;;14.70;5.30;;;;;;;5.80;100.00;102047.81;6189697;23;20020;-75
2023/01/31 10:36:36;;;;;;;23.20;5.47;;;;;;;5.82;100.00;102060.66;6188605;23;20022;-75
2023/01/31 10:39:16;;;;;;;16.50;4.90;;;;;;;5.82;100.00;102050.84;6189557;23;20017;-76
2023/01/31 10:42:05;;;;;;;13.18;4.65;;;;;;;5.85;100.00;102044.06;6189248;23;20014;-75
2023/01/31 10:45:05;;;;;;;13.98;5.13;;;;;;;5.96;100.00;102034.28;6163990;23;20433;-77
2023/01/31 10:47:33;;;;;;;11.07;4.88;;;;;;;6.03;100.00;102029.00;6166530;23;20026;-75
2023/01/31 10:50:00;;;;;;;15.07;4.65;;;;;;;6.08;100.00;102039.19;6163159;23;20014;-76
2023/01/31 10:52:35;;;;;;;13.77;4.88;;;;;;;6.10;100.00;102042.22;6188065;23;20337;-75
2023/01/31 10:55:38;;;;;;;12.45;4.65;;;;;;;6.12;100.00;102039.94;6189346;23;20028;-75
2023/01/31 10:58:14;;;;;;;12.88;5.13;;;;;;;6.08;100.00;102028.63;6189489;23;20041;-75
2023/01/31 11:00:41;;;;;;;16.85;4.93;;;;;;;6.06;100.00;102022.94;6189486;23;20466;-75
2023/01/31 11:03:11;;;;;;;15.85;4.88;;;;;;;6.05;100.00;102032.00;6189367;23;20028;-76
2023/01/31 11:05:46;;;;;;;16.63;4.55;;;;;;;6.04;100.00;102041.06;6188770;23;20072;-75
2023/01/31 11:08:39;;;;;;;19.52;5.32;;;;;;;6.03;100.00;102044.84;6188851;23;20025;-76
2023/01/31 11:11:17;;;;;;;19.48;4.68;;;;;;;6.01;100.00;102039.94;6162362;23;20022;-76
2023/01/31 11:14:01;;;;;;;9.93;3.83;;;;;;;5.99;100.00;102044.88;6189370;23;20958;-78
2023/01/31 11:16:39;;;;;;;14.60;4.70;;;;;;;5.98;100.00;102040.72;6189698;23;20014;-75
2023/01/31 11:19:24;;;;;;;15.32;4.13;;;;;;;5.98;100.00;102051.28;6189063;23;20025;-75
2023/01/31 11:21:52;;;;;;;11.50;4.03;;;;;;;5.97;100.00;102035.81;6189820;23;20014;-75
2023/01/31 11:24:23;;;;;;;13.90;4.00;;;;;;;6.01;100.00;102042.56;6189360;23;20069;-75
2023/01/31 11:27:08;;;;;;;15.45;4.75;;;;;;;6.02;100.00;102038.81;6166841;23;20048;-75
2023/01/31 11:29:38;;;;;;;16.95;4.38;;;;;;;6.03;100.00;102039.56;6188904;23;20287;-75
2023/01/31 11:32:16;;;;;;;8.98;3.75;;;;;;;6.01;100.00;102034.66;6189720;23;20020;-75
2023/01/31 11:35:04;;;;;;;14.95;4.07;;;;;;;6.03;100.00;102031.63;6190045;23;20037;-76
2023/01/31 11:37:33;;;;;;;9.77;3.53;;;;;;;6.05;100.00;102026.72;6163050;23;20042;-75
2023/01/31 11:40:20;;;;;;;12.38;3.60;;;;;;;6.07;100.00;102021.81;6163364;23;20092;-76
2023/01/31 11:42:59;;;;;;;11.82;3.70;;;;;;;6.09;100.00;102019.56;6190885;23;20014;-76
2023/01/31 11:45:29;;;;;;;11.70;3.42;;;;;;;6.09;100.00;102011.63;6190563;23;20029;-76
2023/01/31 11:48:07;;;;;;;9.98;3.83;;;;;;;6.12;100.00;102013.50;6190834;23;20093;-76